Latest Weather Observations for Oakey

IDQ60801

Issued at 11:32 am EST Monday 25 May 2015 (issued every 30 minutes, with the page automatically refreshed every 10 minutes)

About weather observations | Map of weather stations | Latest weather observations for QLD | Other Formats
Station Details ID: 041359 Name: OAKEY AERO Lat: -27.40 Lon: 151.74 Height: 405.69 m
Data from the previous 72 hours. | See also: Recent months at Oakey
Date/Time
EST
Temp
°C
App
Temp
°C
Dew
Point
Rel
Hum
%
Delta-T
°C
Wind Press
QNH
hPa
Press
MSL
hPa
Rain
since 9 am
mm
Dir
 
Spd
km/h
Gust
km/h
Spd
kts
Gust
kts
25/11:00am 18.7 14.7 10.3 58 4.6 E 22 33 12 18 1030.8 - 0.0
25/10:30am 18.2 14.2 10.6 61 4.2 E 22 28 12 15 1031.5 - 0.0
25/10:00am 17.9 14.4 11.0 64 3.8 ENE 20 26 11 14 1031.8 - 0.0
25/09:30am 17.2 14.1 11.5 69 3.2 E 19 24 10 13 1031.9 - 0.0
25/09:00am 16.1 12.9 11.1 72 2.7 E 19 28 10 15 1031.6 1031.1 0.0
25/08:30am 14.1 12.6 10.5 79 1.9 ESE 9 11 5 6 1031.0 - 0.0
25/08:00am 12.5 13.2 12.2 98 0.2 CALM 0 6 0 3 1031.0 - 0.0
25/07:30am 8.8 8.4 8.4 97 0.2 CALM 0 0 0 0 1030.7 - 0.0
25/07:00am 6.6 4.0 6.0 96 0.3 ENE 9 9 5 5 1030.0 - 0.0
25/06:30am 6.1 3.7 5.4 95 0.3 NE 7 9 4 5 1030.1 - 0.0
25/06:22am 6.1 3.9 5.4 95 0.3 NNE 6 7 3 4 1030.1 - 0.0
25/06:00am 7.1 5.2 6.5 96 0.3 NNE 6 6 3 3 1030.0 1029.5 0.0
25/05:30am 6.4 5.0 5.5 94 0.4 SE 2 7 1 4 1029.8 - 0.0
25/05:00am 6.6 4.2 5.2 91 0.6 SE 7 11 4 6 1029.7 - 0.0
25/04:30am 8.2 5.4 7.0 92 0.6 SE 11 15 6 8 1029.7 - 0.0
25/04:00am 7.8 4.7 7.1 95 0.3 SSE 13 17 7 9 1029.7 - 0.0
25/03:30am 7.2 4.5 5.8 91 0.6 SSE 9 11 5 6 1029.9 - 0.0
25/03:00am 8.4 5.7 7.2 92 0.6 SE 11 13 6 7 1029.9 1029.4 0.0
25/02:30am 8.7 5.7 7.5 92 0.6 SSE 13 15 7 8 1030.2 - 0.0
25/02:00am 9.2 5.8 7.8 91 0.7 S 15 17 8 9 1030.3 - 0.0
25/01:30am 11.1 7.6 8.7 85 1.2 ENE 17 20 9 11 1030.3 - 0.0
25/01:00am 11.4 7.6 9.1 86 1.2 ENE 19 20 10 11 1030.1 - 0.0
25/12:30am 11.1 8.3 8.7 85 1.2 E 13 15 7 8 1030.2 - 0.0
25/12:00am 11.4 8.7 8.8 84 1.3 E 13 17 7 9 1030.2 1029.7 0.0
 
Date/Time
EST
Temp
°C
App
Temp
°C
Dew
Point
Rel
Hum
%
Delta-T
°C
Wind Press
QNH
hPa
Press
MSL
hPa
Rain
since 9 am
mm
Dir
 
Spd
km/h
Gust
km/h
Spd
kts
Gust
kts
24/11:30pm 11.4 8.7 8.8 84 1.3 E 13 15 7 8 1030.3 - 0.0
24/11:00pm 12.1 9.1 9.1 82 1.5 ENE 15 19 8 10 1030.3 - 0.0
24/10:30pm 12.4 9.0 9.2 81 1.6 ENE 17 24 9 13 1030.2 - 0.0
24/10:00pm 11.2 8.0 8.6 84 1.3 ENE 15 17 8 9 1030.3 - 0.0
24/09:30pm 10.6 8.0 7.7 82 1.4 E 11 13 6 7 1030.7 - 0.0
24/09:00pm 11.4 9.3 8.1 80 1.6 E 9 11 5 6 1030.7 1030.2 0.0
24/08:30pm 10.3 7.3 7.9 85 1.2 ENE 13 15 7 8 1030.2 - 0.0
24/08:00pm 11.1 7.9 8.5 84 1.3 ENE 15 17 8 9 1030.1 - 0.0
24/07:30pm 11.9 8.7 8.4 79 1.8 ENE 15 17 8 9 1030.0 - 0.0
24/07:00pm 12.7 10.2 8.4 75 2.2 ENE 11 13 6 7 1029.8 - 0.0
24/06:30pm 13.2 10.3 8.3 72 2.5 ENE 13 15 7 8 1029.5 - 0.0
24/06:00pm 13.8 10.9 8.0 68 2.9 ENE 13 15 7 8 1029.1 1028.5 0.0
24/05:30pm 14.9 11.6 8.2 64 3.4 ENE 15 17 8 9 1028.9 - 0.0
24/05:00pm 16.4 13.1 7.9 57 4.4 E 15 19 8 10 1028.8 - 0.0
24/04:30pm 18.3 14.1 7.4 49 5.6 E 19 20 10 11 1028.5 - 0.0
24/04:00pm 19.1 15.3 7.5 47 6.0 ESE 17 20 9 11 1028.2 - 0.0
24/03:30pm 19.7 15.4 7.8 46 6.2 E 20 30 11 16 1027.7 - 0.0
24/03:00pm 19.8 16.0 7.5 45 6.4 ENE 17 22 9 12 1027.8 1027.3 0.0
24/02:30pm 20.3 15.8 8.6 47 6.3 ESE 22 32 12 17 1027.6 - 0.0
24/02:00pm 20.2 15.4 7.2 43 6.8 ENE 22 32 12 17 1027.5 - 0.0
24/01:30pm 20.1 15.9 8.1 46 6.3 ENE 20 30 11 16 1027.9 - 0.0
24/01:00pm 19.9 15.9 8.9 49 5.9 E 20 33 11 18 1028.0 - 0.0
24/12:30pm 19.6 15.0 8.3 48 6.0 ENE 22 30 12 16 1028.1 - 0.0
24/12:00pm 19.4 15.0 9.0 51 5.5 E 22 41 12 22 1028.4 1027.9 0.0
24/11:30am 18.8 12.6 7.9 49 5.7 ENE 30 37 16 20 1028.7 - 0.0
24/11:00am 18.5 13.5 7.9 50 5.5 E 24 33 13 18 1029.0 - 0.0
24/10:30am 18.0 12.2 8.0 52 5.2 ENE 28 37 15 20 1029.3 - 0.0
24/10:00am 17.5 12.7 8.9 57 4.5 E 24 35 13 19 1029.2 - 0.0
24/09:30am 14.8 13.0 9.4 70 2.8 SE 9 11 5 6 1029.6 - 0.0
24/09:00am 13.1 11.8 9.9 81 1.7 S 7 11 4 6 1029.7 1029.2 0.0
24/08:30am 10.2 8.6 8.1 87 1.0 S 6 7 3 4 1029.3 - 0.0
24/08:00am 8.9 7.2 7.7 92 0.6 NE 6 7 3 4 1029.3 - 0.0
24/07:30am 6.6 5.4 6.3 98 0.1 ENE 2 7 1 4 1029.2 - 0.0
24/07:00am 4.7 2.7 4.3 97 0.2 NNE 4 7 2 4 1029.1 - 0.0
24/06:30am 3.8 2.3 3.2 96 0.3 CALM 0 0 0 0 1028.7 - 0.0
24/06:00am 4.1 1.6 3.5 96 0.3 WSW 6 9 3 5 1028.8 1028.2 0.0
24/05:30am 4.1 2.7 3.5 96 0.3 CALM 0 0 0 0 1027.5 - 0.0
24/05:00am 4.2 1.7 3.6 96 0.3 SSE 6 9 3 5 1027.0 - 0.0
24/04:30am 4.8 2.4 4.2 96 0.3 SE 6 7 3 4 1026.9 - 0.0
24/04:00am 5.1 3.9 4.7 97 0.2 CALM 0 0 0 0 1026.8 - 0.0
24/03:30am 4.6 2.0 4.0 96 0.3 SE 7 9 4 5 1026.8 - 0.0
24/03:00am 4.9 2.5 4.2 95 0.3 NE 6 7 3 4 1026.7 1026.1 0.0
24/02:30am 5.4 2.9 4.7 95 0.3 NE 7 9 4 5 1027.2 - 0.0
24/02:00am 5.1 2.5 4.1 93 0.4 E 7 9 4 5 1026.9 - 0.0
24/01:30am 5.8 3.5 4.8 93 0.4 ESE 6 7 3 4 1027.1 - 0.0
24/01:00am 5.8 3.2 4.4 91 0.6 SE 7 7 4 4 1027.0 - 0.0
24/12:30am 6.7 4.5 5.2 90 0.7 SSE 6 7 3 4 1026.9 - 0.0
24/12:00am 7.7 7.0 7.1 96 0.3 CALM 0 0 0 0 1026.9 1026.3 0.0
 
Date/Time
EST
Temp
°C
App
Temp
°C
Dew
Point
Rel
Hum
%
Delta-T
°C
Wind Press
QNH
hPa
Press
MSL
hPa
Rain
since 9 am
mm
Dir
 
Spd
km/h
Gust
km/h
Spd
kts
Gust
kts
23/11:30pm 6.8 5.1 5.7 93 0.5 NNE 4 7 2 4 1026.8 - 0.0
23/11:00pm 7.1 5.0 5.9 92 0.6 NE 6 7 3 4 1026.8 - 0.0
23/10:30pm 8.1 6.2 6.7 91 0.7 ESE 6 7 3 4 1026.9 - 0.0
23/10:00pm 7.8 5.2 5.9 88 0.9 SSE 9 11 5 6 1027.1 - 0.0
23/09:30pm 8.6 6.5 6.6 87 0.9 SSE 7 9 4 5 1027.0 - 0.0
23/09:00pm 8.9 6.8 6.7 86 1.0 SSE 7 9 4 5 1027.0 1026.4 0.0
23/08:30pm 9.1 6.6 6.5 84 1.2 SE 9 11 5 6 1026.8 - 0.0
23/08:00pm 10.2 6.8 7.6 84 1.3 S 15 19 8 10 1026.7 - 0.0
23/07:30pm 10.1 7.1 7.5 84 1.3 ESE 13 13 7 7 1026.5 - 0.0
23/07:00pm 11.0 7.9 7.3 78 1.8 E 13 15 7 8 1026.2 - 0.0
23/06:30pm 12.1 8.7 7.8 75 2.1 ENE 15 17 8 9 1025.8 - 0.0
23/06:00pm 12.9 9.9 7.8 71 2.5 E 13 17 7 9 1025.5 1025.0 0.0
23/05:30pm 14.4 11.0 7.7 64 3.4 E 15 17 8 9 1025.2 - 0.0
23/05:00pm 16.1 11.8 7.8 58 4.3 E 20 28 11 15 1025.0 - 0.0
23/04:30pm 17.4 11.5 7.7 53 5.0 ENE 28 33 15 18 1024.8 - 0.0
23/04:00pm 18.1 12.7 8.1 52 5.2 ENE 26 32 14 17 1024.5 - 0.0
23/03:30pm 19.0 14.7 7.8 48 5.8 E 20 26 11 14 1024.1 - 0.0
23/03:00pm 19.0 14.1 7.1 46 6.1 ENE 22 32 12 17 1023.9 1023.3 0.0
23/02:30pm 18.9 14.5 7.4 47 6.0 ENE 20 32 11 17 1023.7 - 0.0
23/02:00pm 18.1 14.6 7.2 49 5.6 SE 15 22 8 12 1023.7 - 0.0
23/01:30pm 18.7 16.0 7.5 48 5.8 SE 11 19 6 10 1023.7 - 0.0
23/01:00pm 17.8 14.0 7.5 51 5.3 SSE 17 24 9 13 1024.0 - 0.0
23/12:30pm 18.7 15.1 8.4 51 5.4 ESE 17 20 9 11 1024.2 - 0.0
23/12:00pm 17.8 15.2 7.8 52 5.2 E 11 19 6 10 1024.4 1023.8 0.0
23/11:30am 16.6 13.9 7.3 54 4.7 SE 11 19 6 10 1024.7 - 0.0
23/11:00am 16.7 14.9 7.9 56 4.5 E 7 13 4 7 1025.0 - 0.0
23/10:30am 15.9 13.0 8.2 60 4.0 SSE 13 19 7 10 1025.2 - 0.0
23/10:00am 15.1 12.7 8.8 66 3.3 S 11 15 6 8 1025.3 - 0.0
23/09:30am 13.5 10.3 8.6 72 2.5 S 15 20 8 11 1025.1 - 0.0
23/09:02am 12.2 9.6 9.2 82 1.5 S 13 17 7 9 1024.9 - 0.0
23/09:00am 12.0 9.7 9.0 82 1.5 SSW 11 15 6 8 1025.0 1024.5 0.0
23/08:30am 10.3 8.9 8.9 91 0.7 SSE 6 11 3 6 1024.8 - 0.0
23/08:00am 9.8 7.8 8.7 93 0.6 SSW 9 11 5 6 1024.4 - 0.0
23/07:30am 9.8 7.4 8.7 93 0.6 SSW 11 13 6 7 1023.9 - 0.0
23/07:00am 9.7 7.3 8.6 93 0.5 SSW 11 13 6 7 1023.5 - 0.0
23/06:30am 9.8 8.3 8.6 92 0.6 S 6 11 3 6 1023.1 - 0.0
23/06:00am 10.0 7.6 8.8 92 0.6 SSW 11 15 6 8 1022.6 1022.0 0.0
23/05:30am 10.2 7.5 8.8 91 0.7 SSW 13 17 7 9 1022.3 - 0.0
23/05:00am 10.5 8.6 8.9 90 0.8 S 9 15 5 8 1022.3 - 0.0
23/04:30am 10.1 7.4 8.9 92 0.6 SW 13 19 7 10 1021.9 - 0.0
23/04:24am 9.8 7.3 8.4 91 0.7 SW 11 15 6 8 1021.8 - 0.0
23/04:00am 10.3 6.8 8.7 90 0.8 SW 17 22 9 12 1021.7 - 0.0
23/03:30am 10.5 6.7 8.9 90 0.8 SW 19 22 10 12 1022.0 - 0.0
23/03:17am 10.7 6.9 9.0 89 0.9 SW 19 20 10 11 1022.1 - 0.0
23/03:11am 10.7 7.3 9.0 89 0.9 SW 17 20 9 11 1022.1 - 0.0
23/03:00am 10.9 7.1 9.2 89 0.9 SW 19 20 10 11 1022.1 1021.5 0.0
23/02:30am 10.7 9.3 9.5 92 0.6 W 7 9 4 5 1022.0 - 0.0
23/02:00am 10.8 8.7 9.6 92 0.6 WNW 11 15 6 8 1022.1 - 0.0
23/01:30am 11.0 8.5 9.6 91 0.7 W 13 19 7 10 1022.2 - 0.0
23/01:00am 10.9 8.7 9.5 91 0.7 WNW 11 13 6 7 1022.2 - 0.0
23/12:30am 11.0 9.2 9.4 90 0.8 W 9 13 5 7 1022.4 - 0.0
23/12:00am 11.0 9.2 9.4 90 0.8 W 9 13 5 7 1022.3 1021.7 0.0
 
Date/Time
EST
Temp
°C
App
Temp
°C
Dew
Point
Rel
Hum
%
Delta-T
°C
Wind Press
QNH
hPa
Press
MSL
hPa
Rain
since 9 am
mm
Dir
 
Spd
km/h
Gust
km/h
Spd
kts
Gust
kts
22/11:30pm 11.0 8.4 9.4 90 0.8 W 13 19 7 10 1022.2 - 0.0
22/11:00pm 11.2 8.6 9.5 89 0.9 W 13 19 7 10 1022.3 - 0.0
22/10:30pm 11.3 7.9 9.2 87 1.1 W 17 20 9 11 1022.4 - 0.0
22/10:00pm 11.3 7.9 9.0 86 1.2 W 17 22 9 12 1022.6 - 0.0
22/09:30pm 11.3 7.5 9.0 86 1.2 W 19 24 10 13 1022.5 - 0.0
22/09:25pm 11.3 7.3 8.9 85 1.2 W 20 24 11 13 1022.6 - 0.0
22/09:00pm 11.2 7.2 8.9 86 1.2 W 20 28 11 15 1022.2 1021.6 0.0
22/08:30pm 10.9 6.1 8.7 86 1.1 W 24 30 13 16 1022.0 - 0.0
22/08:00pm 11.2 6.3 8.6 84 1.3 W 24 30 13 16 1021.5 - 0.0
22/07:30pm 11.4 6.1 8.6 83 1.4 W 26 33 14 18 1021.4 - 0.0
22/07:00pm 11.5 6.3 8.7 83 1.4 W 26 32 14 17 1021.2 - 0.0
22/06:30pm 11.6 5.5 8.3 80 1.7 W 30 39 16 21 1020.7 - 0.0
22/06:00pm 12.0 8.0 8.3 78 1.9 WSW 19 24 10 13 1020.6 1020.0 0.0
22/05:30pm 12.1 7.1 8.0 76 2.1 WSW 24 33 13 18 1020.3 - 0.0
22/05:00pm 12.3 7.3 8.0 75 2.2 WSW 24 32 13 17 1019.8 - 0.0
22/04:30pm 12.4 6.9 7.7 73 2.3 WSW 26 33 14 18 1019.4 - 0.0
22/04:00pm 12.8 6.9 7.5 70 2.6 WSW 28 33 15 18 1019.0 - 0.0
22/03:30pm 13.2 6.5 7.4 68 2.9 W 32 39 17 21 1018.9 - 0.0
22/03:00pm 12.8 5.7 6.4 65 3.1 WSW 33 44 18 24 1018.9 1018.3 0.0
22/02:30pm 12.9 6.1 7.1 68 2.9 WSW 32 41 17 22 1018.9 - 0.0
22/02:00pm 13.0 6.1 6.6 65 3.1 W 32 46 17 25 1018.8 - 0.0
22/01:30pm 13.0 5.7 7.2 68 2.9 W 35 43 19 23 1018.9 - 0.0
22/01:00pm 13.4 5.7 7.2 66 3.1 W 37 46 20 25 1019.0 - 0.0
22/12:30pm 13.5 6.6 6.6 63 3.4 W 32 39 17 21 1019.1 - 0.0
22/12:00pm 13.5 5.3 6.4 62 3.5 WSW 39 48 21 26 1019.5 1018.9 0.0

Other Formats:

Comma delimited format used in spreadsheet applications
http://www.bom.gov.au/fwo/IDQ60801/IDQ60801.94552.axf

JavaScript Object Notation format (JSON) in row-major order
http://www.bom.gov.au/fwo/IDQ60801/IDQ60801.94552.json